createdAt,value
2018-12-29T09:01:55.146Z,83.37
2018-12-29T09:04:22.322Z,85.38
2018-12-29T09:06:49.351Z,96.53
2018-12-29T09:09:16.397Z,88.58
2018-12-29T09:11:43.450Z,99.42
2018-12-29T09:14:10.494Z,85.90
2018-12-29T09:16:37.557Z,80.80
2018-12-29T09:19:04.610Z,69.92
2018-12-29T09:21:31.697Z,71.53
2018-12-29T09:23:58.769Z,72.55
2018-12-29T09:26:25.825Z,75.97
2018-12-29T09:28:52.876Z,73.92
2018-12-29T09:31:19.919Z,73.83
2018-12-29T09:33:46.964Z,72.30
2018-12-29T09:36:14.065Z,70.97
2018-12-29T09:38:41.114Z,73.75
2018-12-29T09:41:08.145Z,73.37
2018-12-29T09:43:35.226Z,76.28
2018-12-29T09:46:02.323Z,73.33
2018-12-29T09:48:29.356Z,76.12
2018-12-29T09:50:56.397Z,71.72
2018-12-29T09:53:23.456Z,75.52
2018-12-29T09:55:50.535Z,77.35
2018-12-29T09:58:17.616Z,81.50
2018-12-29T10:00:44.691Z,79.10
2018-12-29T10:03:11.754Z,91.42
2018-12-29T10:05:38.839Z,81.72
2018-12-29T10:08:05.937Z,69.47
2018-12-29T10:10:33.023Z,68.42
2018-12-29T10:13:00.113Z,64.07
2018-12-29T10:15:27.177Z,79.47
2018-12-29T10:17:54.255Z,64.50
2018-12-29T10:20:21.301Z,67.05
2018-12-29T10:22:48.373Z,70.47
2018-12-29T10:25:15.421Z,65.60
2018-12-29T10:27:42.481Z,63.42
2018-12-29T10:30:09.539Z,60.12
2018-12-29T10:32:36.605Z,69.95
2018-12-29T10:35:03.701Z,65.67
2018-12-29T10:37:30.786Z,64.62
2018-12-29T10:39:57.889Z,59.73
2018-12-29T10:42:24.949Z,61.23
2018-12-29T10:44:52.000Z,62.17
2018-12-29T10:47:19.055Z,58.13
2018-12-29T10:49:46.109Z,56.77
2018-12-29T10:52:13.208Z,55.83
2018-12-29T10:54:40.282Z,57.17
2018-12-29T10:57:07.360Z,42.00
2018-12-29T10:59:34.430Z,53.63
2018-12-29T11:02:01.517Z,47.27
2018-12-29T11:04:28.562Z,52.13
2018-12-29T11:06:55.632Z,44.65
2018-12-29T11:09:22.701Z,56.92
2018-12-29T11:11:49.769Z,52.17
2018-12-29T11:14:16.823Z,45.78
2018-12-29T11:16:45.542Z,50.08
2018-12-29T11:19:12.585Z,49.20
2018-12-29T11:21:39.656Z,52.38
2018-12-29T11:24:06.744Z,57.50
2018-12-29T11:26:33.794Z,51.02
2018-12-29T11:29:00.850Z,63.40
2018-12-29T11:31:27.893Z,55.03
2018-12-29T11:33:55.191Z,49.15
2018-12-29T11:36:22.247Z,55.33
2018-12-29T11:38:49.276Z,57.23
2018-12-29T11:41:16.352Z,57.45
2018-12-29T11:43:43.406Z,55.78
2018-12-29T11:46:10.437Z,60.95
2018-12-29T11:48:37.505Z,48.20
2018-12-29T11:51:04.535Z,59.33
2018-12-29T11:53:31.795Z,64.50
2018-12-29T11:55:58.839Z,53.55
2018-12-29T11:58:25.882Z,63.78
2018-12-29T12:00:52.949Z,58.73
2018-12-29T12:03:20.007Z,58.08
2018-12-29T12:05:47.163Z,53.95
2018-12-29T12:08:14.240Z,56.88
2018-12-29T12:10:41.292Z,65.85
2018-12-29T12:13:08.364Z,55.10
2018-12-29T12:15:35.413Z,63.28
2018-12-29T12:18:02.462Z,61.80
2018-12-29T12:20:29.719Z,57.00
2018-12-29T12:22:56.816Z,59.00
2018-12-29T12:25:23.875Z,51.83
2018-12-29T12:27:51.123Z,64.10
2018-12-29T12:30:18.191Z,49.93
2018-12-29T12:32:45.227Z,55.55
2018-12-29T12:35:12.326Z,46.40
2018-12-29T12:37:39.406Z,64.85
2018-12-29T12:40:06.443Z,51.23
2018-12-29T12:42:33.519Z,53.98
2018-12-29T12:45:00.566Z,63.92
2018-12-29T12:47:27.745Z,60.75
2018-12-29T12:49:54.929Z,54.83
2018-12-29T12:52:22.293Z,60.25
2018-12-29T12:54:49.345Z,52.15
2018-12-29T12:57:16.691Z,59.65
2018-12-29T12:59:44.146Z,63.90
2018-12-29T13:02:11.219Z,53.08
2018-12-29T13:04:38.469Z,52.95
2018-12-29T13:07:05.541Z,49.73
2018-12-29T13:09:32.617Z,51.95
2018-12-29T13:11:59.678Z,47.58
2018-12-29T13:14:26.705Z,61.45
2018-12-29T13:16:53.760Z,53.83
2018-12-29T13:19:28.393Z,54.70
2018-12-29T13:21:49.899Z,54.75
2018-12-29T13:24:16.982Z,52.78
2018-12-29T13:26:44.027Z,59.18
2018-12-29T13:29:11.077Z,61.55
2018-12-29T13:31:38.124Z,59.67
2018-12-29T13:34:05.214Z,61.58
2018-12-29T13:36:32.274Z,52.65
2018-12-29T13:38:59.350Z,49.90
2018-12-29T13:41:26.399Z,59.42
2018-12-29T13:43:53.451Z,58.50
2018-12-29T13:46:20.614Z,63.17
2018-12-29T13:48:47.659Z,48.17
2018-12-29T13:51:14.687Z,50.85
2018-12-29T13:53:41.726Z,46.75
2018-12-29T13:56:08.783Z,50.95
2018-12-29T13:58:35.830Z,49.45
2018-12-29T14:01:02.871Z,47.73
2018-12-29T14:03:29.941Z,55.05
2018-12-29T14:05:57.051Z,47.40
2018-12-29T14:08:24.104Z,44.03
2018-12-29T14:10:51.161Z,46.98
2018-12-29T14:13:18.570Z,52.38
2018-12-29T14:15:45.601Z,43.17
2018-12-29T14:18:12.642Z,44.83
2018-12-29T14:20:39.706Z,41.48
2018-12-29T14:23:06.766Z,47.80
2018-12-29T14:25:33.795Z,37.75
2018-12-29T14:28:00.830Z,41.15
2018-12-29T14:30:27.866Z,47.10
2018-12-29T14:32:54.941Z,37.80
2018-12-29T14:35:21.994Z,48.25
2018-12-29T14:37:49.098Z,44.30
2018-12-29T14:40:16.457Z,42.50
2018-12-29T14:42:43.532Z,47.35
2018-12-29T14:45:10.576Z,46.70
2018-12-29T14:47:37.610Z,44.85
2018-12-29T14:50:05.090Z,48.17
2018-12-29T14:52:32.133Z,57.80
2018-12-29T14:54:59.177Z,42.53
2018-12-29T14:57:26.211Z,48.33
2018-12-29T14:59:53.280Z,47.15
2018-12-29T15:02:20.318Z,56.30
2018-12-29T15:04:47.368Z,47.93
2018-12-29T15:07:14.725Z,53.80
2018-12-29T15:09:41.769Z,53.63
2018-12-29T15:12:08.863Z,49.75
2018-12-29T15:14:35.936Z,47.62
2018-12-29T15:17:03.001Z,44.73
2018-12-29T15:19:30.054Z,52.43
2018-12-29T15:21:57.131Z,49.58
2018-12-29T15:24:24.208Z,40.45
2018-12-29T15:26:51.300Z,55.43
2018-12-29T15:29:18.656Z,76.35
2018-12-29T15:31:45.737Z,60.85
2018-12-29T15:34:12.853Z,56.95
2018-12-29T15:36:39.968Z,55.23
2018-12-29T15:39:07.047Z,48.95
2018-12-29T15:41:34.131Z,37.42
2018-12-29T15:44:01.421Z,49.88
2018-12-29T15:46:28.490Z,40.48
2018-12-29T15:48:55.568Z,44.63
2018-12-29T15:51:22.970Z,39.05
2018-12-29T15:53:50.113Z,38.78
2018-12-29T15:56:17.506Z,39.98
2018-12-29T15:58:44.576Z,39.42
2018-12-29T16:01:11.863Z,40.43
2018-12-29T16:03:38.950Z,35.52
2018-12-29T16:06:06.055Z,39.42
2018-12-29T16:08:33.123Z,38.50
2018-12-29T16:11:00.251Z,42.83
2018-12-29T16:13:27.315Z,42.05
2018-12-29T16:15:54.409Z,38.48
2018-12-29T16:18:21.897Z,41.75
2018-12-29T16:20:53.547Z,42.70
2018-12-29T16:23:26.142Z,44.48
2018-12-29T16:25:59.763Z,40.90
2018-12-29T16:28:26.841Z,38.90
2018-12-29T16:30:53.921Z,72.72
2018-12-29T16:33:21.061Z,50.75
2018-12-29T16:35:48.335Z,62.08
2018-12-29T16:38:15.410Z,56.40
2018-12-29T16:40:42.549Z,53.68
2018-12-29T16:43:09.661Z,74.95
2018-12-29T16:45:36.747Z,83.12
2018-12-29T16:48:04.230Z,83.03
2018-12-29T16:50:31.403Z,105.72
2018-12-29T16:52:58.507Z,66.45
2018-12-29T16:55:25.594Z,68.83
2018-12-29T16:57:52.708Z,58.75
2018-12-29T17:00:19.812Z,56.35
2018-12-29T17:02:46.884Z,49.15
2018-12-29T17:05:13.966Z,52.13
2018-12-29T17:07:41.075Z,56.58
2018-12-29T17:10:08.198Z,51.20
2018-12-29T17:12:36.890Z,56.30
2018-12-29T17:15:04.390Z,49.48
2018-12-29T17:17:32.727Z,54.23
2018-12-29T17:19:59.829Z,59.23
2018-12-29T17:22:27.215Z,53.02
2018-12-29T17:24:54.333Z,56.18
2018-12-29T17:27:21.435Z,54.55
2018-12-29T17:29:48.946Z,56.00
2018-12-29T17:32:16.109Z,56.18
2018-12-29T17:34:43.225Z,57.60
2018-12-29T17:37:10.332Z,66.57
2018-12-29T17:39:37.843Z,66.10
2018-12-29T17:42:05.009Z,88.55
2018-12-29T17:44:32.126Z,81.67
2018-12-29T17:46:59.556Z,71.92
2018-12-29T17:49:26.710Z,71.37
2018-12-29T17:51:54.148Z,62.75
2018-12-29T17:54:21.233Z,70.00
2018-12-29T17:56:48.371Z,65.87
2018-12-29T17:59:15.527Z,69.90
2018-12-29T18:01:42.973Z,76.22
2018-12-29T18:04:10.059Z,75.30
2018-12-29T18:06:38.181Z,71.65
2018-12-29T18:09:05.849Z,71.05
2018-12-29T18:11:32.987Z,82.05
2018-12-29T18:14:00.413Z,75.45
2018-12-29T18:16:29.913Z,83.55
2018-12-29T18:18:57.146Z,72.32
2018-12-29T18:21:24.511Z,66.42
2018-12-29T18:23:53.749Z,68.87
2018-12-29T18:26:21.164Z,79.07
2018-12-29T18:28:48.425Z,74.25
2018-12-29T18:31:15.556Z,65.28
2018-12-29T18:33:42.690Z,69.20
2018-12-29T18:36:09.848Z,76.30
2018-12-29T18:38:38.302Z,76.87
2018-12-29T18:41:05.408Z,69.47
2018-12-29T18:43:32.555Z,75.37
2018-12-29T18:46:01.058Z,79.65
2018-12-29T18:48:28.216Z,70.87
2018-12-29T18:50:58.264Z,67.15
2018-12-29T18:53:25.390Z,74.95
2018-12-29T18:55:52.559Z,81.37
2018-12-29T18:58:19.691Z,82.80
2018-12-29T19:00:46.827Z,73.57
2018-12-29T19:03:14.354Z,75.52
2018-12-29T19:05:41.778Z,77.67
2018-12-29T19:08:09.163Z,74.35
2018-12-29T19:10:36.786Z,96.08
2018-12-29T19:13:05.613Z,99.17
2018-12-29T19:15:33.013Z,127.72
2018-12-29T19:18:00.426Z,78.60
2018-12-29T19:20:28.203Z,83.62
2018-12-29T19:22:55.340Z,78.10
2018-12-29T19:25:22.675Z,81.80
2018-12-29T19:27:49.851Z,84.05
2018-12-29T19:30:17.446Z,75.15
2018-12-29T19:32:44.868Z,92.30
2018-12-29T19:35:12.001Z,91.47
2018-12-29T19:37:39.193Z,80.97
2018-12-29T19:40:10.702Z,84.60
2018-12-29T19:42:38.175Z,81.90
2018-12-29T19:45:06.755Z,79.70
2018-12-29T19:47:34.055Z,84.45
2018-12-29T19:50:01.704Z,76.70
2018-12-29T19:52:32.146Z,82.70
2018-12-29T19:54:59.293Z,84.83
2018-12-29T19:57:26.847Z,82.42
2018-12-29T19:59:54.386Z,71.80
2018-12-29T20:02:22.215Z,77.40
2018-12-29T20:04:49.778Z,76.82
2018-12-29T20:07:17.580Z,77.15
2018-12-29T20:09:45.075Z,80.25
2018-12-29T20:12:16.015Z,72.70
2018-12-29T20:14:44.282Z,67.75
2018-12-29T20:17:11.794Z,76.87
2018-12-29T20:19:39.049Z,72.82
2018-12-29T20:22:06.513Z,69.97
2018-12-29T20:24:34.696Z,64.55
2018-12-29T20:27:04.348Z,71.90
2018-12-29T20:29:31.552Z,71.67
2018-12-29T20:31:58.816Z,69.62
2018-12-29T20:34:28.169Z,65.30
2018-12-29T20:36:55.394Z,62.58
2018-12-29T20:39:22.563Z,55.03
2018-12-29T20:41:49.805Z,64.00
2018-12-29T20:44:17.350Z,71.57
2018-12-29T20:46:44.851Z,59.30
2018-12-29T20:49:12.585Z,60.58
2018-12-29T20:51:41.051Z,66.65
2018-12-29T20:54:08.306Z,50.73
2018-12-29T20:56:36.133Z,54.27
2018-12-29T20:59:03.303Z,49.65
2018-12-29T21:01:31.474Z,53.35
2018-12-29T21:03:58.964Z,47.53
2018-12-29T21:06:30.036Z,38.53
2018-12-29T21:08:58.584Z,36.77
2018-12-29T21:11:26.000Z,38.90
2018-12-29T21:13:53.403Z,34.95
2018-12-29T21:16:20.572Z,35.33
2018-12-29T21:18:50.685Z,36.83
2018-12-29T21:21:18.902Z,43.70
2018-12-29T21:23:46.073Z,42.45
2018-12-29T21:26:14.012Z,41.33
2018-12-29T21:28:41.432Z,37.93
2018-12-29T21:31:08.572Z,40.40
2018-12-29T21:33:36.001Z,40.45
2018-12-29T21:36:04.941Z,37.10
2018-12-29T21:38:32.122Z,35.25
2018-12-29T21:40:59.319Z,39.30
2018-12-29T21:43:26.522Z,43.55
2018-12-29T21:45:53.903Z,41.58
2018-12-29T21:48:21.631Z,46.45
2018-12-29T21:50:49.907Z,36.05
2018-12-29T21:53:17.050Z,43.80
2018-12-29T21:55:44.992Z,33.53
2018-12-29T21:58:14.395Z,45.60
2018-12-29T22:00:41.556Z,36.08
2018-12-29T22:03:08.904Z,37.35
2018-12-29T22:05:36.029Z,45.03
2018-12-29T22:08:03.380Z,48.28
2018-12-29T22:10:30.533Z,46.98
2018-12-29T22:12:57.664Z,48.30
2018-12-29T22:15:26.308Z,62.00
2018-12-29T22:17:53.777Z,50.92
2018-12-29T22:20:20.891Z,46.45
2018-12-29T22:22:48.021Z,50.98
2018-12-29T22:25:15.608Z,54.25
2018-12-29T22:27:42.756Z,51.37
2018-12-29T22:30:09.861Z,54.35
2018-12-29T22:32:37.276Z,47.50
2018-12-29T22:35:04.420Z,55.78
2018-12-29T22:37:31.563Z,52.13
2018-12-29T22:39:58.997Z,55.45
2018-12-29T22:42:26.105Z,54.40
2018-12-29T22:44:53.218Z,59.23
2018-12-29T22:47:20.408Z,57.05
2018-12-29T22:49:47.835Z,55.95
2018-12-29T22:52:14.929Z,53.95
2018-12-29T22:54:42.092Z,63.92
2018-12-29T22:57:09.222Z,61.08
2018-12-29T22:59:36.349Z,57.13
2018-12-29T23:02:03.649Z,56.48
2018-12-29T23:04:30.759Z,53.92
2018-12-29T23:06:57.863Z,53.35
2018-12-29T23:09:24.955Z,50.78
2018-12-29T23:11:52.055Z,55.83
2018-12-29T23:14:19.165Z,60.58
2018-12-29T23:16:46.297Z,51.77
2018-12-29T23:19:13.392Z,60.48
2018-12-29T23:21:40.473Z,55.78
2018-12-29T23:24:07.773Z,57.85
2018-12-29T23:26:34.822Z,55.85
2018-12-29T23:29:01.904Z,61.15
2018-12-29T23:31:28.949Z,65.60
2018-12-29T23:33:56.013Z,64.37
2018-12-29T23:36:23.376Z,60.15
2018-12-29T23:38:50.483Z,64.72
2018-12-29T23:41:17.539Z,66.60
2018-12-29T23:43:44.899Z,66.00
2018-12-29T23:46:11.949Z,69.45
2018-12-29T23:48:38.995Z,65.72
2018-12-29T23:51:06.058Z,67.05
2018-12-29T23:53:33.096Z,70.72
2018-12-29T23:56:00.565Z,71.67
2018-12-29T23:58:27.599Z,72.08
